Aviation Digital Data Service (ADDS)

Output produced by METARs form (1249 UTC 21 February 2018)
found at http://www.aviationweather.gov/adds/metars/
 
YPAD 211230Z 07007KT CAVOK 23/19 Q1011 NOSIG
TAF YPAD 201115Z 2012/2118 14008KT CAVOK 
     FM201800 20008KT 9999 -RA NSC 
     FM210000 15008KT 9999 -RA NSC 
     FM210600 06008KT 9999 -RA NSC 
     FM211200 VRB05KT 9999 -RA NSC
       
YBAS 211230Z AUTO 30005KT 9999 // NCD 33/14 Q1006 RF00.0/000.2
YAMB 211230Z AUTO 14008KT 9999 // BKN039 OVC047 23/15 Q1015
YMAV 211230Z AUTO 24003KT 9999 // SCT100 22/15 Q1014 RF00.0/000.0
YBAS 211230Z AUTO 30005KT 9999 // NCD 33/14 Q1006 RF00.0/000.2
YBBN 211230Z 17008KT 9999 FEW020 OVC037 22/18 Q1014 NOSIG
TAF AMD YBBN 201124Z 2012/2118 18012KT 9999 -SHRA BKN025 
     FM202300 14016G26KT 9999 -SHRA BKN030 
     FM210200 14016G26KT 9999 SCT035 BKN045 
     FM211000 14013KT 9999 BKN030 
     FM211400 14008KT 9999 -SHRA FEW020 BKN030 INTER 2020/2103 14020KT 3000 SHRA BKN012
       
YBCG 211230Z AUTO 13015KT 9999 // BKN056 OVC069 23/18 Q1015
YBCS 211230Z 27005KT 8000 VCSH FEW018 SCT020 BKN030 FEW020TCU 28/24 Q1005 TEMPO 1330/1530 VRB10G45KT 1000 TSRA BKN008 SCT020CB
YBHM 211230Z AUTO 11020KT 9999 // SCT024 SCT031 BKN054 26/22 Q1007
YBMA 211230Z AUTO 17007KT 9999 // ////// 33/07 Q1002 RF00.0/000.0
YBRK 211230Z AUTO 13008KT 9999 // SCT017 BKN021 BKN025 24/22 Q1008
YBRM 211230Z AUTO 00000KT 9999 // SCT019 27/26 Q1006 RF00.0/000.0
YBTL 211230Z AUTO 10008KT 9999 // BKN016 BKN020 BKN024 26/23 Q1006
YBUD 211231Z AUTO 16011KT 8000 RA ////// 22/22 Q1010
YBBN 211230Z 17008KT 9999 FEW020 OVC037 22/18 Q1014 NOSIG
TAF AMD YBBN 201124Z 2012/2118 18012KT 9999 -SHRA BKN025 
     FM202300 14016G26KT 9999 -SHRA BKN030 
     FM210200 14016G26KT 9999 SCT035 BKN045 
     FM211000 14013KT 9999 BKN030 
     FM211400 14008KT 9999 -SHRA FEW020 BKN030 INTER 2020/2103 14020KT 3000 SHRA BKN012
       
YBRM 211230Z AUTO 00000KT 9999 // SCT019 27/26 Q1006 RF00.0/000.0
YBUD 211231Z AUTO 16011KT 8000 RA ////// 22/22 Q1010
YBCS 211230Z 27005KT 8000 VCSH FEW018 SCT020 BKN030 FEW020TCU 28/24 Q1005 TEMPO 1330/1530 VRB10G45KT 1000 TSRA BKN008 SCT020CB
YSCB 211230Z AUTO 06007KT 9999 // NCD 17/11 Q1018
YCIN 211230Z AUTO 33003KT 9999 // NCD 27/27 Q1006 RF00.0/000.0
TAF AMD YCIN 211232Z 2112/2202 31005KT 9999 -SHRA SCT030 
     FM211800 27006KT 9999 -SHRA BKN010 
     FM220000 20005KT 9999 -SHRA SCT030
       
YBCG 211230Z AUTO 13015KT 9999 // BKN056 OVC069 23/18 Q1015
YCIN 211230Z AUTO 33003KT 9999 // NCD 27/27 Q1006 RF00.0/000.0
TAF AMD YCIN 211232Z 2112/2202 31005KT 9999 -SHRA SCT030 
     FM211800 27006KT 9999 -SHRA BKN010 
     FM220000 20005KT 9999 -SHRA SCT030
       
YPDN 211230Z 27004KT 9999 FEW015 BKN400 27/24 Q1006
TAF YPDN 201108Z 2012/2118 27008KT 9999 FEW015 SCT025 
     PROB30 
     TEMPO 2017/2024 VRB20G35KT 1000 TSRA BKN010 SCT020CB 
     PROB30 
     TEMPO 2103/2110 VRB20G35KT 1000 TSRA BKN010 SCT020CB
       
YSDU 211230Z AUTO 08008KT 9999 // NCD 22/09 Q1015 RF00.0/000.0
YESP 211230Z AUTO 10008KT 9999 // OVC006 19/17 Q1010
YFRT 211234Z AUTO 13028G38KT //// // ////// 20/20 Q1000
TAF AMD YFRT 211232Z 2114/2202 14020G30KT 6000 RA BKN015 
     FM211800 20014KT 9999 -SHRA BKN012 
     FM220000 22018G28KT 9999 -SHRA BKN020 INTER 2118/2202 4000 SHRA BKN010
       
YGEL 211230Z AUTO 16011KT 9999 // NCD 22/18 Q1007 RF00.0/000.0
YGLA 211230Z AUTO 16008KT 9999 // SCT026 SCT039 OVC056 23/21 Q1009
YPGV 211230Z AUTO 31007KT 9999 // NCD 28/25 Q1006 RF00.0/000.0
YBHM 211230Z AUTO 11020KT 9999 // SCT024 SCT031 BKN054 26/22 Q1007
YMHB 211230Z 21006KT CAVOK 15/11 Q1018
YHID 211230Z AUTO 30005KT 9999 // NCD 28/25 Q1006
YPKG 211230Z AUTO 19006KT 9999 // OVC030 21/21 Q1009
YKRY 211230Z AUTO 13010KT 9999 // BKN016 OVC021 19/17 Q1015
YKRY 211230Z AUTO 13010KT 9999 // BKN016 OVC021 19/17 Q1015
YPKU 211230Z AUTO 32005KT 9999 // NCD 25/25 Q1006 RF00.0/001.8
YMLT 211230Z AUTO 32007KT 9999 // NCD 13/08 Q1018 RF00.0/000.0
YPLM 211230Z AUTO 24018KT 9999 // SCT021 26/20 Q1005
YMAV 211230Z AUTO 24003KT 9999 // SCT100 22/15 Q1014 RF00.0/000.0
YMHB 211230Z 21006KT CAVOK 15/11 Q1018
YMLT 211230Z AUTO 32007KT 9999 // NCD 13/08 Q1018 RF00.0/000.0
YMML 211230Z 27001KT CAVOK 22/11 Q1014 NOSIG
TAF YMML 201104Z 2012/2118 VRB05KT CAVOK 
     FM201400 36008KT CAVOK 
     BECMG 2018/2020 36022G36KT CAVOK 
     FM210200 36014KT CAVOK 
     FM210800 02010KT CAVOK 
     FM211500 02010KT 9999 -RA NSC
       
YMML 211230Z 27001KT CAVOK 22/11 Q1014 NOSIG
TAF YMML 201104Z 2012/2118 VRB05KT CAVOK 
     FM201400 36008KT CAVOK 
     BECMG 2018/2020 36022G36KT CAVOK 
     FM210200 36014KT CAVOK 
     FM210800 02010KT CAVOK 
     FM211500 02010KT 9999 -RA NSC
       
YBMA 211230Z AUTO 17007KT 9999 // ////// 33/07 Q1002 RF00.0/000.0
YPAD 211230Z 07007KT CAVOK 23/19 Q1011 NOSIG
TAF YPAD 201115Z 2012/2118 14008KT CAVOK 
     FM201800 20008KT 9999 -RA NSC 
     FM210000 15008KT 9999 -RA NSC 
     FM210600 06008KT 9999 -RA NSC 
     FM211200 VRB05KT 9999 -RA NSC
       
YPCC 211230Z AUTO 12010KT 9999 // SCT022 28/23 Q1007
YPDN 211230Z 27004KT 9999 FEW015 BKN400 27/24 Q1006
TAF YPDN 201108Z 2012/2118 27008KT 9999 FEW015 SCT025 
     PROB30 
     TEMPO 2017/2024 VRB20G35KT 1000 TSRA BKN010 SCT020CB 
     PROB30 
     TEMPO 2103/2110 VRB20G35KT 1000 TSRA BKN010 SCT020CB
       
YPEA 211230Z AUTO 21004KT 9999 // NCD 20/13 Q1008
YPGV 211230Z AUTO 31007KT 9999 // NCD 28/25 Q1006 RF00.0/000.0
YPJT 211230Z AUTO 22009KT 9999 // NCD 21/15 Q1008 RF00.0/000.0
YPKG 211230Z AUTO 19006KT 9999 // OVC030 21/21 Q1009
YPKU 211230Z AUTO 32005KT 9999 // NCD 25/25 Q1006 RF00.0/001.8
YPLM 211230Z AUTO 24018KT 9999 // SCT021 26/20 Q1005
YPPD 211230Z AUTO 29008KT //// // NCD 28/24 Q1005
YPPH 211230Z 21009KT CAVOK 22/13 Q1008 NOSIG
TAF YPPH 201103Z 2012/2118 16010KT CAVOK 
     FM201400 11015G25KT CAVOK 
     FM210000 10010KT 9999 SCT045 
     FM210800 23014KT CAVOK 
     FM211300 16008KT CAVOK
       
YPTN 211230Z AUTO 00000KT 9999 // NCD 28/24 Q1006
YPWR 211230Z AUTO 12017KT 9999 // NCD 28/13 Q1007 RF00.0/000.0
YPXM 211236Z AUTO 13003KT 9999 // SCT008 SCT012 OVC035 24/23 Q1009
YPEA 211230Z AUTO 21004KT 9999 // NCD 20/13 Q1008
YPPH 211230Z 21009KT CAVOK 22/13 Q1008 NOSIG
TAF YPPH 201103Z 2012/2118 16010KT CAVOK 
     FM201400 11015G25KT CAVOK 
     FM210000 10010KT 9999 SCT045 
     FM210800 23014KT CAVOK 
     FM211300 16008KT CAVOK
       
YPJT 211230Z AUTO 22009KT 9999 // NCD 21/15 Q1008 RF00.0/000.0
YPPD 211230Z AUTO 29008KT //// // NCD 28/24 Q1005
YSRI 211230Z AUTO 00000KT 9999 // NCD 18/14 Q1018 RF00.0/000.0 PRESENT WEATHER SENSOR US
YBRK 211230Z AUTO 13008KT 9999 // SCT017 BKN021 BKN025 24/22 Q1008
YSCB 211230Z AUTO 06007KT 9999 // NCD 17/11 Q1018
YSDU 211230Z AUTO 08008KT 9999 // NCD 22/09 Q1015 RF00.0/000.0
YSNF 211230Z AUTO 15012KT 5000 // OVC003 20/// Q1015 RF00.0/002.0
TAF AMD YSNF 211229Z 2112/2212 13010KT 5000 DZ -SHRA BKN005 OVC010 
     BECMG 2115/2117 16010KT 9999 -SHRA SCT007 BKN018 
     BECMG 2122/2124 16010KT 9999 SCT020 BKN040 
     TEMPO 2112/2115 3000 SHRA +DZ BKN002 INTER 2115/2118 4000 SHRA DZ BKN015
       
YSRI 211230Z AUTO 00000KT 9999 // NCD 18/14 Q1018 RF00.0/000.0 PRESENT WEATHER SENSOR US
YSSY 211230Z 02005KT 9999 FEW040 BKN240 23/14 Q1018
TAF YSSY 201104Z 2012/2118 18010KT 9999 FEW030 BKN040 
     FM210000 11015KT 9999 BKN040 
     FM210900 06010KT 9999 FEW035 
     FM211400 29008KT 9999 SCT030
       
YSTW 211230Z AUTO 09005KT 9999 // NCD 20/11 Q1017 RF00.0/000.0
YKRY 211230Z AUTO 13010KT 9999 // BKN016 OVC021 19/17 Q1015
YSSY 211230Z 02005KT 9999 FEW040 BKN240 23/14 Q1018
TAF YSSY 201104Z 2012/2118 18010KT 9999 FEW030 BKN040 
     FM210000 11015KT 9999 BKN040 
     FM210900 06010KT 9999 FEW035 
     FM211400 29008KT 9999 SCT030
       
YSTW 211230Z AUTO 09005KT 9999 // NCD 20/11 Q1017 RF00.0/000.0
YPTN 211230Z AUTO 00000KT 9999 // NCD 28/24 Q1006
YBTL 211230Z AUTO 10008KT 9999 // BKN016 BKN020 BKN024 26/23 Q1006
YWLM 211230Z AUTO 05003KT 9999 // BKN055 19/16 Q1017
YPWR 211230Z AUTO 12017KT 9999 // NCD 28/13 Q1007 RF00.0/000.0